US1GBF-7 messages


fromtotime message
WXBOT US1GBF-7 10/19 04:46:03z Reply UKOH 190430Z 07002MPS 3500 BR OVC004 13/13 Q1020 R03/190060 NOSIG{EL
US1GBF-7 WXBOT 10/19 04:45:56z Send another Metar{19
ANSRVR US1GBF-7 10/18 11:27:18z Reply Members[UKRSAR]: US1GBF-1 US1GBF-7 UR5STI-10
US1GBF-7 ANSRVR 10/18 11:27:18z Send another D UKRSAR{17
US1GBF-7 US1GBF-1 10/18 11:21:01z Send another N:UKRSAR NO WEATHER WARN.OVER REG.
US1GBF-7 ANSRVR 10/18 11:21:00z Send another CQ UKRSAR NO WEATHER WARN.OVER REG. {16
US1GBF-7 US1GBF-1 10/18 11:20:01z Send another N:UKRSAR TAF UKOH 180802Z 1809/1818 05003MPS 9999 SCT030
US1GBF-7 ANSRVR 10/18 11:20:00z Send another CQ UKRSAR TAF UKOH 180802Z 1809/1818 05003MPS 9999 SCT030{15
ANSRVR US1GBF-7 10/18 08:24:04z Reply 2 Members In UKRSAR
ANSRVR US1GBF-7 10/18 08:24:03z Reply Members[UKRSAR]: US1GBF-1 US1GBF-7
ANSRVR US1GBF-7 10/18 08:24:03z Reply (Send D UKRSAR to change)
ANSRVR US1GBF-7 10/18 08:24:03z Reply UKRSAR(2) Ukrainian ham radio Search and Rescue service+
US1GBF-7 ANSRVR 10/18 08:24:03z Send another D ukrsar{14
WXBOT US1GBF-7 10/18 08:14:50z Reply UKOH 180800Z 21001MPS CAVOK 16/13 Q1019 R03/CLRD// NOSIG{DK
US1GBF-7 WXBOT 10/18 08:14:44z Send another Metar{18
WXBOT US1GBF-7 10/18 08:13:06z Reply UKOH 180800Z 21001MPS CAVOK 16/13 Q1019 R03/CLRD// NOSIG{DJ
WXBOT US1GBF-7 10/18 08:12:06z Reply UKOH 180800Z 21001MPS CAVOK 16/13 Q1019 R03/CLRD// NOSIG{DI
WXBOT US1GBF-7 10/18 08:11:28z Reply UKOH 180800Z 21001MPS CAVOK 16/13 Q1019 R03/CLRD// NOSIG{DH
WXBOT US1GBF-7 10/18 08:10:57z Reply UKOH 180800Z 21001MPS CAVOK 16/13 Q1019 R03/CLRD// NOSIG{DG
WXBOT US1GBF-7 10/18 08:09:31z Reply UKOH 180800Z 21001MPS CAVOK 16/13 Q1019 R03/CLRD// NOSIG{DF
WXBOT US1GBF-7 10/18 04:47:15z Reply SIG{DB
WXBOT US1GBF-7 10/18 04:47:10z Reply UKOH 180430Z 03001MPS 0100 0050N FG VV000 09/09 Q1018 R03/CLRD// NO{DA
US1GBF-7 ALL 10/17 18:34:20z Send another test{1
WXBOT US1GBF-7 10/17 16:22:48z Reply UKOH 171600Z 06002MPS CAVOK 17/13 Q1018 R03/CLRD// NOSIG{BN
US1GBF-7 WXBOT 10/17 16:22:41z Send another Metar{16
WXBOT US1GBF-7 10/17 09:49:43z Reply 1{BL
WXBOT US1GBF-7 10/17 09:49:38z Reply URKK 170930Z 09002MPS CAVOK 20/12 Q1019 R05R/CLRD70 NOSIG RMK QFE76{BK
US1GBF-7 WXBOT 10/17 09:49:31z Send another R6DHE METAR{15
WXBOT US1GBF-7 10/17 09:49:00z Reply Sorry, unable to get a forecast for location 46.66567/32.65883{BJ
US1GBF-7 WXBOT 10/17 09:48:52z Send another R6DHE MERAR{14
WXBOT US1GBF-7 10/17 09:48:03z Reply UKFF"{BI
US1GBF-7 WXBOT 10/17 09:47:56z Send another RR7KAA METAR{13
WXBOT US1GBF-7 10/17 09:47:05z Reply UKON 170900Z 10005MPS CAVOK 19/12 Q1020 R04/090075 NOSIG{BH
US1GBF-7 WXBOT 10/17 09:46:58z Send another Ur5zfq-2 metar{12
WXBOT US1GBF-7 10/17 09:46:29z Reply UKOH 170930Z 07004MPS CAVOK 20/13 Q1019 R03/CLRD// NOSIG{BG
US1GBF-7 WXBOT 10/17 09:46:22z Send another Metar{11
WXBOT US1GBF-7 10/17 09:45:43z Reply UKFF"{BF
US1GBF-7 WXBOT 10/17 09:45:36z Send another RK7K metar{10
WXBOT US1GBF-7 10/17 09:42:54z Reply UKFF"{BE
US1GBF-7 WXBOT 10/17 09:42:47z Send another R7RDE METAR{9
WXBOT US1GBF-7 10/17 09:39:49z Reply UKFF"{BD
US1GBF-7 WXBOT 10/17 09:39:43z Send another UKFF{8
US1GBF-7 US1GBF-1 10/17 09:38:10z Send another N:UKRSAR NO WEATHER WARN. OVER REG.
US1GBF-7 ANSRVR 10/17 09:38:09z Send another CQ UKRSAR NO WEATHER WARN. OVER REG. {13
WXBOT US1GBF-7 10/17 06:11:16z Reply UKOH 170600Z 07004MPS 6000 NSC 13/11 Q1019 R03/CLRD// NOSIG{BA
US1GBF-7 WXBOT 10/17 06:11:09z Send another METAR{7
WXBOT US1GBF-7 10/16 18:23:38z Reply UKOH 161800Z 08003MPS CAVOK 15/12 Q1020 R03/CLRD// NOSIG{YR
US1GBF-7 WXBOT 10/16 18:23:31z Send another METAR{6
WXBOT US1GBF-7 10/16 18:21:25z Reply UKOH 161800Z 08003MPS CAVOK 15/12 Q1020 R03/CLRD// NOSIG{YQ
WHERE US1GBF-7 10/15 13:17:00z Reply US1GHQ: 4.71 km 30.56 deg NNE (4m ago){4
US1GBF-7 WHERE 10/15 13:16:59z Send another US1GHQ km{4
WHERE US1GBF-7 10/15 13:15:29z Reply US1GHQ: 4.71 km 30.56 deg NNE (2m ago){4
UR5YBM-14 US1GBF-7 10/15 12:28:46z Reply 15:28:46 Ok{81
UR5YBM-14 US1GBF-7 10/15 12:28:17z Reply 15:28:17 Ok{81
US1GBF-7 UR5YBM-14 10/15 12:28:16z Send another us1gbf-3{1
UR5YBM-14 US1GBF-7 10/15 12:21:16z Reply 15:21:15 Ok{25
UR5YBM-14 US1GBF-7 10/15 12:20:16z Reply 15:20:15 Ok{25
UR5YBM-14 US1GBF-7 10/15 12:19:47z Reply 15:19:46 Ok{25
WHERE US1GBF-7 10/15 12:07:00z Reply US1GBF-2: 64807.93 meters 160.62 deg SSE (22m ago){3
US1GBF-7 WHERE 10/15 12:06:59z Send another us1gbf-2 m{3
US1GHQ-10 US1GBF-7 10/15 11:12:40z Reply знаю помню говорил :-){6
US1GBF-7 US1GHQ-10 10/15 10:39:13z Send another ???????????????????? ????'????????! {4
US1GBF-7 US1GHQ-10 10/15 10:39:12z Send another Нормальний зв'язок! {4
US1GHQ-10 US1GBF-7 10/15 10:38:16z Reply Ухты у меня на компе кракозяблики :-){3
US1GBF-7 US1GHQ-10 10/15 10:38:16z Send another ???????????? ?? ???????????????? ?????????? {6
US1GBF-7 US1GHQ-10 10/15 10:38:15z Send another Заходи в телеграм канал {6
US1GHQ-10 US1GBF-7 10/15 10:37:33z Reply Ага вместо мобильной связи:-) жду ещё транзисторы для трансивера{4
US1GBF-7 US1GHQ-10 10/15 10:36:54z Send another ???? ?????????? ???????????????? ???? ?????????? ????????????{5
US1GBF-7 US1GHQ-10 10/15 10:36:54z Send another На компе латиницу не будет читать{5
US1GHQ-10 US1GBF-7 10/15 10:36:13z Reply а то мощности кто наплакал :-){5
US1GBF-7 US1GHQ-10 10/15 10:33:38z Send another ????????! {3
US1GBF-7 US1GHQ-10 10/15 10:33:37z Send another Есть! {3
US1GHQ-10 US1GBF-7 10/15 10:32:55z Reply отправил через трансивер :-) есть или нема?{2
US1GHQ US1GBF-7 10/15 10:27:32z Reply A tak menya slushno? Eto 4erez transiver{1
US1GBF-7 US1GHQ-10 10/15 10:07:21z Send another Ясно, а я через эфир на 144.8{2
US1GBF-7 US1GHQ-10 10/15 10:03:50z Send another привет, как слышно? {1
US1GHQ-10 US1GBF-7 10/15 10:03:18z Reply привет я с телефона через инет :-){1
US1GBF-7 US1GHQ-7 10/15 09:57:51z Send another привет. как слышно?) {1
US1GBF-7 US1GHQ 10/15 08:47:45z Send another Privet. Xorowo rabotaet stancija{4
ANSRVR US1GBF-7 10/15 08:36:52z Reply N:UKRSAR 1 Message Sent
US1GBF-7 US1GBF-1 10/15 08:36:52z Send another N:UKRSAR NO WEATHER WORNING
US1GBF-7 ANSRVR 10/15 08:36:52z Send another CQ UKRSAR NO WEATHER WORNING{12
ANSRVR US1GBF-7 10/15 08:34:12z Reply N:UKRSAR Removed From Group
WHERE US1GBF-7 10/15 06:03:31z Reply UR0GVA: 2.25 miles 294.18 deg WNW (21m ago){2
US1GBF-7 WHERE 10/15 06:03:31z Send another Ur0gva{2
WHERE US1GBF-7 10/15 06:00:21z Reply US1GBF-3: 46.6715 32.674333 (<1m ago){1
US1GBF-7 WHERE 10/15 06:00:20z Send another pos US1GBF-3 {1
WHERE US1GBF-7 10/15 05:58:00z Reply US1GBF-2: 46.1155 32.937 (14m ago){4
US1GBF-7 WHERE 10/15 05:57:59z Send another pos us1gbf-2 {4
WHERE US1GBF-7 10/15 05:57:45z Reply US1GBF-2: 40.28 miles 160.6 deg SSE (14m ago){3
US1GBF-7 WHERE 10/15 05:57:44z Send another Us1gbf-2 pos{3
WHERE US1GBF-7 10/15 05:57:04z Reply US1GBF-3: 0.83 mile 62.02 deg ENE (8m ago){2
US1GBF-7 WHERE 10/15 05:57:03z Send another Us1gbf-3 pos{2
WHERE US1GBF-7 10/15 05:55:38z Reply US1GBF-3: 0.84 mile 61.33 deg ENE (2m ago){1
WHERE US1GBF-7 10/15 05:55:03z Reply US1GBF-1: 2.73 miles 242.88 deg WSW (4m ago){1
WHERE US1GBF-7 10/15 05:55:02z Reply US1GBF-3: 0.83 mile 62.02 deg ENE (5m ago){1
US1GBF-7 WHERE 10/15 05:54:31z Send another us1gbf-3 loc{1
WHERE US1GBF-7 10/15 05:53:28z Reply US1GBF-6: 2.71 miles 242.73 deg WSW (3d 3h 3m ago){1
WHERE US1GBF-7 10/15 05:52:53z Reply US1GBF-4: 40.28 miles 160.6 deg SSE (1d 4h ago){1
WHERE US1GBF-7 10/15 05:52:18z Reply US1GBF-2: 40.26 miles 160.62 deg SSE (8m ago){1